Main page
METAR-TAF:

METAR-TAF

Airports :

Wrigley Airport

Wrigley, Northwest Territories, Canada

latitude: 63-13N, longitude: 123-26W, elevation: 150 m

Current weather observation

The report was made 16 hours and 10 minutes ago, at 21:00 UTC
Wind 12 kt from the South/Southeast
Temperature -6°C
Humidity 53%
Pressure 1006 hPa
Visibility: 24.1 km
Few clouds at a height of 16000 ft
Few clouds at a height of 25000 ft

METAR: CYWY 212100Z 15012KT 15SM FEW160 FEW250 M06/M14 A2972 RMK AC1CI1 AC TR SLP081

Time: 07:10 (13:10 UTC)


TAF: missing

Weather observations and forecasts of more than 4000 airports (METAR and TAF reports).

The available stations are represented by yellow and red dots on the map.

Hover mouse over dot to see the name of the station.

Then click to see weather observations and forecasts.

To change the map : click on the green buttons with a black cross to zoom in, on the green button with a dash to zoom out, or on the green arrows for adjacent maps.


METAR-TAF: